sensor_id;sensor_type;location;lat;lon;timestamp;temperature;humidity
13462;DHT22;6803;45.264;5.468;2022-08-25T00:00:41;19.60;99.90
13462;DHT22;6803;45.264;5.468;2022-08-25T00:03:12;19.20;99.90
13462;DHT22;6803;45.264;5.468;2022-08-25T00:06:03;19.00;99.90
13462;DHT22;6803;45.264;5.468;2022-08-25T00:08:35;18.80;99.90
13462;DHT22;6803;45.264;5.468;2022-08-25T00:11:08;18.80;99.90
13462;DHT22;6803;45.264;5.468;2022-08-25T00:13:41;18.80;99.90
13462;DHT22;6803;45.264;5.468;2022-08-25T00:16:13;18.90;99.90
13462;DHT22;6803;45.264;5.468;2022-08-25T00:18:48;19.00;99.90
13462;DHT22;6803;45.264;5.468;2022-08-25T00:21:18;19.10;99.90
13462;DHT22;6803;45.264;5.468;2022-08-25T00:23:49;19.30;99.90
13462;DHT22;6803;45.264;5.468;2022-08-25T00:26:20;19.40;99.90
13462;DHT22;6803;45.264;5.468;2022-08-25T00:28:51;19.20;99.90
13462;DHT22;6803;45.264;5.468;2022-08-25T00:31:24;19.10;99.90
13462;DHT22;6803;45.264;5.468;2022-08-25T00:33:56;19.10;99.90
13462;DHT22;6803;45.264;5.468;2022-08-25T00:36:27;19.00;99.90
13462;DHT22;6803;45.264;5.468;2022-08-25T00:38:58;19.00;99.90
13462;DHT22;6803;45.264;5.468;2022-08-25T00:41:28;19.00;99.90
13462;DHT22;6803;45.264;5.468;2022-08-25T00:44:00;18.80;99.90
13462;DHT22;6803;45.264;5.468;2022-08-25T00:46:35;18.80;99.90
13462;DHT22;6803;45.264;5.468;2022-08-25T00:49:08;18.90;99.90
13462;DHT22;6803;45.264;5.468;2022-08-25T00:51:44;18.90;99.90
13462;DHT22;6803;45.264;5.468;2022-08-25T00:54:17;18.80;99.90
13462;DHT22;6803;45.264;5.468;2022-08-25T00:56:50;18.60;99.90
13462;DHT22;6803;45.264;5.468;2022-08-25T00:59:22;18.50;99.90
13462;DHT22;6803;45.264;5.468;2022-08-25T01:01:55;18.30;99.90
13462;DHT22;6803;45.264;5.468;2022-08-25T01:04:27;18.20;99.90
13462;DHT22;6803;45.264;5.468;2022-08-25T01:06:59;18.10;99.90
13462;DHT22;6803;45.264;5.468;2022-08-25T01:09:31;18.00;99.90
13462;DHT22;6803;45.264;5.468;2022-08-25T01:12:03;18.00;99.90
13462;DHT22;6803;45.264;5.468;2022-08-25T01:14:35;17.90;99.90
13462;DHT22;6803;45.264;5.468;2022-08-25T01:17:07;18.00;99.90
13462;DHT22;6803;45.264;5.468;2022-08-25T01:19:39;18.10;99.90
13462;DHT22;6803;45.264;5.468;2022-08-25T01:22:10;18.20;99.90
13462;DHT22;6803;45.264;5.468;2022-08-25T01:24:44;18.40;99.90
13462;DHT22;6803;45.264;5.468;2022-08-25T01:27:15;18.50;99.90
13462;DHT22;6803;45.264;5.468;2022-08-25T01:29:46;18.60;99.90
13462;DHT22;6803;45.264;5.468;2022-08-25T01:32:17;18.40;99.90
13462;DHT22;6803;45.264;5.468;2022-08-25T01:34:47;18.20;99.90
13462;DHT22;6803;45.264;5.468;2022-08-25T01:37:20;18.10;99.90
13462;DHT22;6803;45.264;5.468;2022-08-25T01:39:50;18.10;99.90
13462;DHT22;6803;45.264;5.468;2022-08-25T01:42:41;18.10;99.90
13462;DHT22;6803;45.264;5.468;2022-08-25T01:45:10;18.10;99.90
13462;DHT22;6803;45.264;5.468;2022-08-25T01:47:40;18.20;99.90
13462;DHT22;6803;45.264;5.468;2022-08-25T01:50:11;18.30;99.90
13462;DHT22;6803;45.264;5.468;2022-08-25T01:52:50;18.30;99.90
13462;DHT22;6803;45.264;5.468;2022-08-25T01:55:21;18.40;99.90
13462;DHT22;6803;45.264;5.468;2022-08-25T01:57:51;18.50;99.90
13462;DHT22;6803;45.264;5.468;2022-08-25T02:00:23;18.50;99.90
13462;DHT22;6803;45.264;5.468;2022-08-25T02:02:54;18.50;99.90
13462;DHT22;6803;45.264;5.468;2022-08-25T02:05:26;18.50;99.90
13462;DHT22;6803;45.264;5.468;2022-08-25T02:07:58;18.40;99.90
13462;DHT22;6803;45.264;5.468;2022-08-25T02:10:30;18.30;99.90
13462;DHT22;6803;45.264;5.468;2022-08-25T02:13:01;18.20;99.90
13462;DHT22;6803;45.264;5.468;2022-08-25T02:15:34;18.30;99.90
13462;DHT22;6803;45.264;5.468;2022-08-25T02:18:05;18.20;99.90
13462;DHT22;6803;45.264;5.468;2022-08-25T02:20:36;18.10;99.90
13462;DHT22;6803;45.264;5.468;2022-08-25T02:23:06;18.00;99.90
13462;DHT22;6803;45.264;5.468;2022-08-25T02:25:39;17.90;99.90
13462;DHT22;6803;45.264;5.468;2022-08-25T02:28:10;17.80;99.90
13462;DHT22;6803;45.264;5.468;2022-08-25T02:30:42;17.80;99.90
13462;DHT22;6803;45.264;5.468;2022-08-25T02:33:12;17.70;99.90
13462;DHT22;6803;45.264;5.468;2022-08-25T02:35:43;17.70;99.90
13462;DHT22;6803;45.264;5.468;2022-08-25T02:38:14;17.60;99.90
13462;DHT22;6803;45.264;5.468;2022-08-25T02:40:44;17.50;99.90
13462;DHT22;6803;45.264;5.468;2022-08-25T02:43:15;17.30;99.90
13462;DHT22;6803;45.264;5.468;2022-08-25T02:45:46;17.30;99.90
13462;DHT22;6803;45.264;5.468;2022-08-25T02:48:16;17.40;99.90
13462;DHT22;6803;45.264;5.468;2022-08-25T02:50:48;17.40;99.90
13462;DHT22;6803;45.264;5.468;2022-08-25T02:53:21;17.30;99.90
13462;DHT22;6803;45.264;5.468;2022-08-25T02:55:52;17.30;99.90
13462;DHT22;6803;45.264;5.468;2022-08-25T02:58:23;17.50;99.90
13462;DHT22;6803;45.264;5.468;2022-08-25T03:00:53;17.50;99.90
13462;DHT22;6803;45.264;5.468;2022-08-25T03:03:25;17.50;99.90
13462;DHT22;6803;45.264;5.468;2022-08-25T03:05:56;17.50;99.90
13462;DHT22;6803;45.264;5.468;2022-08-25T03:08:26;17.60;99.90
13462;DHT22;6803;45.264;5.468;2022-08-25T03:10:57;17.70;99.90
13462;DHT22;6803;45.264;5.468;2022-08-25T03:13:28;17.80;99.90
13462;DHT22;6803;45.264;5.468;2022-08-25T03:15:59;17.80;99.90
13462;DHT22;6803;45.264;5.468;2022-08-25T03:18:31;18.00;99.90
13462;DHT22;6803;45.264;5.468;2022-08-25T03:21:02;18.20;99.90
13462;DHT22;6803;45.264;5.468;2022-08-25T03:23:33;18.50;99.90
13462;DHT22;6803;45.264;5.468;2022-08-25T03:26:04;18.60;99.90
13462;DHT22;6803;45.264;5.468;2022-08-25T03:28:53;18.40;99.90
13462;DHT22;6803;45.264;5.468;2022-08-25T03:31:24;18.10;99.90
13462;DHT22;6803;45.264;5.468;2022-08-25T03:33:56;17.70;99.90
13462;DHT22;6803;45.264;5.468;2022-08-25T03:36:28;17.30;99.90
13462;DHT22;6803;45.264;5.468;2022-08-25T03:38:59;17.20;99.90
13462;DHT22;6803;45.264;5.468;2022-08-25T03:41:30;17.00;99.90
13462;DHT22;6803;45.264;5.468;2022-08-25T03:44:03;17.00;99.90
13462;DHT22;6803;45.264;5.468;2022-08-25T03:46:36;16.90;99.90
13462;DHT22;6803;45.264;5.468;2022-08-25T03:49:08;17.00;99.90
13462;DHT22;6803;45.264;5.468;2022-08-25T03:51:43;17.10;99.90
13462;DHT22;6803;45.264;5.468;2022-08-25T03:54:14;17.30;99.90
13462;DHT22;6803;45.264;5.468;2022-08-25T03:56:45;17.50;99.90
13462;DHT22;6803;45.264;5.468;2022-08-25T03:59:16;17.60;99.90
13462;DHT22;6803;45.264;5.468;2022-08-25T04:01:48;17.60;99.90
13462;DHT22;6803;45.264;5.468;2022-08-25T04:04:20;17.70;99.90
13462;DHT22;6803;45.264;5.468;2022-08-25T04:06:51;17.70;99.90
13462;DHT22;6803;45.264;5.468;2022-08-25T04:09:22;17.70;99.90
13462;DHT22;6803;45.264;5.468;2022-08-25T04:11:53;17.40;99.90
13462;DHT22;6803;45.264;5.468;2022-08-25T04:14:25;17.20;99.90
13462;DHT22;6803;45.264;5.468;2022-08-25T04:16:55;17.00;99.90
13462;DHT22;6803;45.264;5.468;2022-08-25T04:19:26;17.10;99.90
13462;DHT22;6803;45.264;5.468;2022-08-25T04:21:58;17.10;99.90
13462;DHT22;6803;45.264;5.468;2022-08-25T04:24:28;17.20;99.90
13462;DHT22;6803;45.264;5.468;2022-08-25T04:26:59;17.10;99.90
13462;DHT22;6803;45.264;5.468;2022-08-25T04:29:30;17.10;99.90
13462;DHT22;6803;45.264;5.468;2022-08-25T04:34:38;17.20;99.90
13462;DHT22;6803;45.264;5.468;2022-08-25T04:37:09;17.10;99.90
13462;DHT22;6803;45.264;5.468;2022-08-25T04:39:40;16.90;99.90
13462;DHT22;6803;45.264;5.468;2022-08-25T04:42:11;16.80;99.90
13462;DHT22;6803;45.264;5.468;2022-08-25T04:44:42;16.80;99.90
13462;DHT22;6803;45.264;5.468;2022-08-25T04:47:12;16.80;99.90
13462;DHT22;6803;45.264;5.468;2022-08-25T04:49:43;16.80;99.90
13462;DHT22;6803;45.264;5.468;2022-08-25T04:52:14;16.70;99.90
13462;DHT22;6803;45.264;5.468;2022-08-25T04:54:45;16.80;99.90
13462;DHT22;6803;45.264;5.468;2022-08-25T04:57:16;16.90;99.90
13462;DHT22;6803;45.264;5.468;2022-08-25T04:59:46;16.80;99.90
13462;DHT22;6803;45.264;5.468;2022-08-25T05:02:18;16.80;99.90
13462;DHT22;6803;45.264;5.468;2022-08-25T05:04:48;16.80;99.90
13462;DHT22;6803;45.264;5.468;2022-08-25T05:07:19;16.90;99.90
13462;DHT22;6803;45.264;5.468;2022-08-25T05:09:50;17.00;99.90
13462;DHT22;6803;45.264;5.468;2022-08-25T05:12:20;16.90;99.90
13462;DHT22;6803;45.264;5.468;2022-08-25T05:14:52;16.90;99.90
13462;DHT22;6803;45.264;5.468;2022-08-25T05:17:23;17.00;99.90
13462;DHT22;6803;45.264;5.468;2022-08-25T05:19:54;16.90;99.90
13462;DHT22;6803;45.264;5.468;2022-08-25T05:22:24;17.00;99.90
13462;DHT22;6803;45.264;5.468;2022-08-25T05:24:55;17.30;99.90
13462;DHT22;6803;45.264;5.468;2022-08-25T05:27:26;17.10;99.90
13462;DHT22;6803;45.264;5.468;2022-08-25T05:29:57;17.00;99.90
13462;DHT22;6803;45.264;5.468;2022-08-25T05:32:27;16.90;99.90
13462;DHT22;6803;45.264;5.468;2022-08-25T05:34:58;17.00;99.90
13462;DHT22;6803;45.264;5.468;2022-08-25T05:37:28;17.00;99.90
13462;DHT22;6803;45.264;5.468;2022-08-25T05:39:59;17.00;99.90
13462;DHT22;6803;45.264;5.468;2022-08-25T05:42:30;17.40;99.90
13462;DHT22;6803;45.264;5.468;2022-08-25T05:45:01;17.50;99.90
13462;DHT22;6803;45.264;5.468;2022-08-25T05:47:32;17.40;99.90
13462;DHT22;6803;45.264;5.468;2022-08-25T05:50:04;17.70;99.90
13462;DHT22;6803;45.264;5.468;2022-08-25T05:52:35;17.70;99.90
13462;DHT22;6803;45.264;5.468;2022-08-25T05:55:08;17.60;99.90
13462;DHT22;6803;45.264;5.468;2022-08-25T05:57:38;17.70;99.90
13462;DHT22;6803;45.264;5.468;2022-08-25T06:00:11;17.90;99.90
13462;DHT22;6803;45.264;5.468;2022-08-25T06:02:42;17.90;99.90
13462;DHT22;6803;45.264;5.468;2022-08-25T06:05:16;17.90;99.90
13462;DHT22;6803;45.264;5.468;2022-08-25T06:07:49;18.00;99.90
13462;DHT22;6803;45.264;5.468;2022-08-25T06:10:20;18.00;99.90
13462;DHT22;6803;45.264;5.468;2022-08-25T06:12:51;18.10;99.90
13462;DHT22;6803;45.264;5.468;2022-08-25T06:18:06;18.30;99.90
13462;DHT22;6803;45.264;5.468;2022-08-25T06:20:36;18.50;99.90
13462;DHT22;6803;45.264;5.468;2022-08-25T06:23:07;18.70;99.90
13462;DHT22;6803;45.264;5.468;2022-08-25T06:25:38;18.90;99.90
13462;DHT22;6803;45.264;5.468;2022-08-25T06:28:08;19.10;99.90
13462;DHT22;6803;45.264;5.468;2022-08-25T06:30:45;19.40;99.90
13462;DHT22;6803;45.264;5.468;2022-08-25T06:33:16;19.60;99.90
13462;DHT22;6803;45.264;5.468;2022-08-25T06:35:46;19.80;99.90
13462;DHT22;6803;45.264;5.468;2022-08-25T06:38:17;20.00;99.90
13462;DHT22;6803;45.264;5.468;2022-08-25T06:40:48;20.00;99.90
13462;DHT22;6803;45.264;5.468;2022-08-25T06:43:20;20.20;99.90
13462;DHT22;6803;45.264;5.468;2022-08-25T06:45:51;20.30;99.90
13462;DHT22;6803;45.264;5.468;2022-08-25T06:48:22;20.40;99.90
13462;DHT22;6803;45.264;5.468;2022-08-25T06:50:52;20.60;99.90
13462;DHT22;6803;45.264;5.468;2022-08-25T06:53:23;20.80;99.90
13462;DHT22;6803;45.264;5.468;2022-08-25T06:55:57;20.90;99.90
13462;DHT22;6803;45.264;5.468;2022-08-25T06:58:30;21.10;99.90
13462;DHT22;6803;45.264;5.468;2022-08-25T07:01:08;21.20;99.90
13462;DHT22;6803;45.264;5.468;2022-08-25T07:03:41;21.30;99.90
13462;DHT22;6803;45.264;5.468;2022-08-25T07:06:13;21.40;99.90
13462;DHT22;6803;45.264;5.468;2022-08-25T07:08:46;21.50;99.90
13462;DHT22;6803;45.264;5.468;2022-08-25T07:11:17;21.60;99.90
13462;DHT22;6803;45.264;5.468;2022-08-25T07:13:49;21.70;99.90
13462;DHT22;6803;45.264;5.468;2022-08-25T07:16:21;21.90;99.90
13462;DHT22;6803;45.264;5.468;2022-08-25T07:18:54;21.80;99.90
13462;DHT22;6803;45.264;5.468;2022-08-25T07:21:28;22.00;99.90
13462;DHT22;6803;45.264;5.468;2022-08-25T07:26:41;22.10;99.90
13462;DHT22;6803;45.264;5.468;2022-08-25T07:29:17;22.20;99.90
13462;DHT22;6803;45.264;5.468;2022-08-25T07:31:50;22.30;99.90
13462;DHT22;6803;45.264;5.468;2022-08-25T07:34:21;22.20;99.90
13462;DHT22;6803;45.264;5.468;2022-08-25T07:37:11;22.10;99.90
13462;DHT22;6803;45.264;5.468;2022-08-25T07:39:43;22.20;99.90
13462;DHT22;6803;45.264;5.468;2022-08-25T07:42:14;22.30;99.90
13462;DHT22;6803;45.264;5.468;2022-08-25T07:44:46;22.40;99.90
13462;DHT22;6803;45.264;5.468;2022-08-25T07:47:17;22.50;99.90
13462;DHT22;6803;45.264;5.468;2022-08-25T07:49:49;22.70;99.90
13462;DHT22;6803;45.264;5.468;2022-08-25T07:52:21;22.90;99.90
13462;DHT22;6803;45.264;5.468;2022-08-25T07:54:51;23.10;99.90
13462;DHT22;6803;45.264;5.468;2022-08-25T07:57:23;23.30;99.90
13462;DHT22;6803;45.264;5.468;2022-08-25T07:59:55;23.40;99.90
13462;DHT22;6803;45.264;5.468;2022-08-25T08:02:26;23.50;99.90
13462;DHT22;6803;45.264;5.468;2022-08-25T08:04:59;23.50;99.90
13462;DHT22;6803;45.264;5.468;2022-08-25T08:07:29;23.60;99.90
13462;DHT22;6803;45.264;5.468;2022-08-25T08:10:02;23.70;99.90
13462;DHT22;6803;45.264;5.468;2022-08-25T08:12:35;23.90;99.90
13462;DHT22;6803;45.264;5.468;2022-08-25T08:15:08;23.90;99.90
13462;DHT22;6803;45.264;5.468;2022-08-25T08:17:39;23.90;99.90
13462;DHT22;6803;45.264;5.468;2022-08-25T08:20:11;23.80;99.90
13462;DHT22;6803;45.264;5.468;2022-08-25T08:22:43;23.70;99.90
13462;DHT22;6803;45.264;5.468;2022-08-25T08:25:14;23.80;99.90
13462;DHT22;6803;45.264;5.468;2022-08-25T08:27:46;24.00;99.90
13462;DHT22;6803;45.264;5.468;2022-08-25T08:30:21;24.00;99.90
13462;DHT22;6803;45.264;5.468;2022-08-25T08:32:53;23.90;99.90
13462;DHT22;6803;45.264;5.468;2022-08-25T08:35:26;24.00;99.90
13462;DHT22;6803;45.264;5.468;2022-08-25T08:37:57;24.10;99.90
13462;DHT22;6803;45.264;5.468;2022-08-25T08:40:29;24.30;99.90
13462;DHT22;6803;45.264;5.468;2022-08-25T08:43:04;24.60;99.90
13462;DHT22;6803;45.264;5.468;2022-08-25T08:45:38;24.50;99.90
13462;DHT22;6803;45.264;5.468;2022-08-25T08:48:41;24.70;99.90
13462;DHT22;6803;45.264;5.468;2022-08-25T08:51:18;24.90;99.90
13462;DHT22;6803;45.264;5.468;2022-08-25T08:53:55;24.90;99.90
13462;DHT22;6803;45.264;5.468;2022-08-25T08:59:09;25.10;99.90
13462;DHT22;6803;45.264;5.468;2022-08-25T09:01:45;25.40;99.90
13462;DHT22;6803;45.264;5.468;2022-08-25T09:04:21;25.50;99.90
13462;DHT22;6803;45.264;5.468;2022-08-25T09:06:52;25.60;99.90
13462;DHT22;6803;45.264;5.468;2022-08-25T09:09:27;25.40;99.90
13462;DHT22;6803;45.264;5.468;2022-08-25T09:12:03;25.50;99.90
13462;DHT22;6803;45.264;5.468;2022-08-25T09:14:45;25.60;99.90
13462;DHT22;6803;45.264;5.468;2022-08-25T09:17:23;25.70;99.90
13462;DHT22;6803;45.264;5.468;2022-08-25T09:20:22;26.00;99.90
13462;DHT22;6803;45.264;5.468;2022-08-25T09:22:55;26.00;99.90
13462;DHT22;6803;45.264;5.468;2022-08-25T09:25:34;26.30;99.90
13462;DHT22;6803;45.264;5.468;2022-08-25T09:28:08;26.40;99.90
13462;DHT22;6803;45.264;5.468;2022-08-25T09:30:43;26.90;99.90
13462;DHT22;6803;45.264;5.468;2022-08-25T09:33:18;27.50;99.90
13462;DHT22;6803;45.264;5.468;2022-08-25T09:35:51;28.00;99.90
13462;DHT22;6803;45.264;5.468;2022-08-25T09:38:25;28.20;99.90
13462;DHT22;6803;45.264;5.468;2022-08-25T09:40:59;28.00;99.90
13462;DHT22;6803;45.264;5.468;2022-08-25T09:43:34;27.80;99.90
13462;DHT22;6803;45.264;5.468;2022-08-25T09:46:12;27.70;99.90
13462;DHT22;6803;45.264;5.468;2022-08-25T09:48:45;28.00;99.90
13462;DHT22;6803;45.264;5.468;2022-08-25T09:51:22;28.20;99.90
13462;DHT22;6803;45.264;5.468;2022-08-25T09:53:55;28.20;99.90
13462;DHT22;6803;45.264;5.468;2022-08-25T09:56:28;28.20;99.90
13462;DHT22;6803;45.264;5.468;2022-08-25T10:01:57;28.30;99.90
13462;DHT22;6803;45.264;5.468;2022-08-25T10:04:32;28.30;99.90
13462;DHT22;6803;45.264;5.468;2022-08-25T10:07:19;28.50;99.90
13462;DHT22;6803;45.264;5.468;2022-08-25T10:09:53;28.60;99.90
13462;DHT22;6803;45.264;5.468;2022-08-25T10:12:29;28.60;99.90
13462;DHT22;6803;45.264;5.468;2022-08-25T10:15:10;28.70;99.90
13462;DHT22;6803;45.264;5.468;2022-08-25T10:17:43;28.90;99.90
13462;DHT22;6803;45.264;5.468;2022-08-25T10:20:20;29.10;99.90
13462;DHT22;6803;45.264;5.468;2022-08-25T10:22:54;29.00;99.90
13462;DHT22;6803;45.264;5.468;2022-08-25T10:25:27;28.90;99.90
13462;DHT22;6803;45.264;5.468;2022-08-25T10:28:03;28.90;99.90
13462;DHT22;6803;45.264;5.468;2022-08-25T10:30:41;29.00;99.90
13462;DHT22;6803;45.264;5.468;2022-08-25T10:33:15;29.20;99.90
13462;DHT22;6803;45.264;5.468;2022-08-25T10:35:53;29.50;99.90
13462;DHT22;6803;45.264;5.468;2022-08-25T10:38:32;29.70;99.90
13462;DHT22;6803;45.264;5.468;2022-08-25T10:41:11;29.50;99.90
13462;DHT22;6803;45.264;5.468;2022-08-25T10:43:45;29.90;99.90
13462;DHT22;6803;45.264;5.468;2022-08-25T10:46:22;30.00;99.90
13462;DHT22;6803;45.264;5.468;2022-08-25T10:48:58;29.90;99.90
13462;DHT22;6803;45.264;5.468;2022-08-25T10:51:38;29.80;99.90
13462;DHT22;6803;45.264;5.468;2022-08-25T10:54:32;29.90;99.90
13462;DHT22;6803;45.264;5.468;2022-08-25T10:59:53;30.40;99.90
13462;DHT22;6803;45.264;5.468;2022-08-25T11:05:24;30.30;99.90
13462;DHT22;6803;45.264;5.468;2022-08-25T11:08:02;30.90;99.90
13462;DHT22;6803;45.264;5.468;2022-08-25T11:10:37;30.70;99.90
13462;DHT22;6803;45.264;5.468;2022-08-25T11:13:12;30.90;99.90
13462;DHT22;6803;45.264;5.468;2022-08-25T11:15:49;30.50;99.90
13462;DHT22;6803;45.264;5.468;2022-08-25T11:18:21;30.30;99.90
13462;DHT22;6803;45.264;5.468;2022-08-25T11:20:58;30.40;99.90
13462;DHT22;6803;45.264;5.468;2022-08-25T11:23:32;30.10;99.90
13462;DHT22;6803;45.264;5.468;2022-08-25T11:28:53;30.50;99.90
13462;DHT22;6803;45.264;5.468;2022-08-25T11:31:25;30.90;99.90
13462;DHT22;6803;45.264;5.468;2022-08-25T11:33:56;30.60;99.90
13462;DHT22;6803;45.264;5.468;2022-08-25T11:36:31;30.80;99.90
13462;DHT22;6803;45.264;5.468;2022-08-25T11:39:10;31.40;99.90
13462;DHT22;6803;45.264;5.468;2022-08-25T11:41:50;32.00;99.90
13462;DHT22;6803;45.264;5.468;2022-08-25T11:44:42;32.10;99.90
13462;DHT22;6803;45.264;5.468;2022-08-25T11:47:33;31.90;99.90
13462;DHT22;6803;45.264;5.468;2022-08-25T11:50:08;31.50;99.90
13462;DHT22;6803;45.264;5.468;2022-08-25T11:52:49;31.40;99.90
13462;DHT22;6803;45.264;5.468;2022-08-25T11:55:26;31.80;99.90
13462;DHT22;6803;45.264;5.468;2022-08-25T11:58:25;32.10;99.90
13462;DHT22;6803;45.264;5.468;2022-08-25T12:00:56;32.50;99.90
13462;DHT22;6803;45.264;5.468;2022-08-25T12:03:55;32.50;99.90
13462;DHT22;6803;45.264;5.468;2022-08-25T12:06:29;32.70;99.90
13462;DHT22;6803;45.264;5.468;2022-08-25T12:09:19;32.90;99.90
13462;DHT22;6803;45.264;5.468;2022-08-25T12:11:54;33.00;99.90
13462;DHT22;6803;45.264;5.468;2022-08-25T12:17:39;33.50;99.90
13462;DHT22;6803;45.264;5.468;2022-08-25T12:20:10;33.40;99.90
13462;DHT22;6803;45.264;5.468;2022-08-25T12:22:53;33.40;99.90
13462;DHT22;6803;45.264;5.468;2022-08-25T12:25:43;33.30;99.90
13462;DHT22;6803;45.264;5.468;2022-08-25T12:31:29;33.30;98.40
13462;DHT22;6803;45.264;5.468;2022-08-25T12:34:13;33.30;99.00
13462;DHT22;6803;45.264;5.468;2022-08-25T12:36:54;33.60;99.90
13462;DHT22;6803;45.264;5.468;2022-08-25T12:39:31;33.60;97.50
13462;DHT22;6803;45.264;5.468;2022-08-25T12:42:05;33.60;97.60
13462;DHT22;6803;45.264;5.468;2022-08-25T12:44:43;34.00;97.60
13462;DHT22;6803;45.264;5.468;2022-08-25T12:47:29;34.00;98.30
13462;DHT22;6803;45.264;5.468;2022-08-25T12:50:29;34.20;96.70
13462;DHT22;6803;45.264;5.468;2022-08-25T12:53:10;34.00;96.20
13462;DHT22;6803;45.264;5.468;2022-08-25T12:55:45;34.00;96.50
13462;DHT22;6803;45.264;5.468;2022-08-25T12:58:16;34.30;96.40
13462;DHT22;6803;45.264;5.468;2022-08-25T13:01:12;34.10;96.00
13462;DHT22;6803;45.264;5.468;2022-08-25T13:04:03;34.50;96.70
13462;DHT22;6803;45.264;5.468;2022-08-25T13:06:44;34.30;96.00
13462;DHT22;6803;45.264;5.468;2022-08-25T13:09:48;34.50;94.70
13462;DHT22;6803;45.264;5.468;2022-08-25T13:14:58;35.10;93.40
13462;DHT22;6803;45.264;5.468;2022-08-25T13:17:32;34.80;94.10
13462;DHT22;6803;45.264;5.468;2022-08-25T13:20:14;34.70;94.90
13462;DHT22;6803;45.264;5.468;2022-08-25T13:22:47;34.90;93.60
13462;DHT22;6803;45.264;5.468;2022-08-25T13:25:22;35.30;91.00
13462;DHT22;6803;45.264;5.468;2022-08-25T13:27:57;35.30;92.70
13462;DHT22;6803;45.264;5.468;2022-08-25T13:30:30;35.00;94.00
13462;DHT22;6803;45.264;5.468;2022-08-25T13:33:15;35.10;92.10
13462;DHT22;6803;45.264;5.468;2022-08-25T13:35:49;34.60;91.90
13462;DHT22;6803;45.264;5.468;2022-08-25T13:38:23;34.60;93.00
13462;DHT22;6803;45.264;5.468;2022-08-25T13:41:03;35.00;90.80
13462;DHT22;6803;45.264;5.468;2022-08-25T13:43:36;34.80;92.10
13462;DHT22;6803;45.264;5.468;2022-08-25T13:46:09;34.90;93.00
13462;DHT22;6803;45.264;5.468;2022-08-25T13:48:41;35.10;92.10
13462;DHT22;6803;45.264;5.468;2022-08-25T13:51:21;35.20;92.00
13462;DHT22;6803;45.264;5.468;2022-08-25T13:53:56;35.40;92.10
13462;DHT22;6803;45.264;5.468;2022-08-25T13:56:31;35.60;89.70
13462;DHT22;6803;45.264;5.468;2022-08-25T13:59:05;35.80;91.30
13462;DHT22;6803;45.264;5.468;2022-08-25T14:01:46;36.00;90.70
13462;DHT22;6803;45.264;5.468;2022-08-25T14:04:28;35.90;89.30
13462;DHT22;6803;45.264;5.468;2022-08-25T14:07:12;35.50;89.40
13462;DHT22;6803;45.264;5.468;2022-08-25T14:09:49;36.20;89.90
13462;DHT22;6803;45.264;5.468;2022-08-25T14:12:33;36.30;88.60
13462;DHT22;6803;45.264;5.468;2022-08-25T14:15:12;36.00;87.30
13462;DHT22;6803;45.264;5.468;2022-08-25T14:18:02;35.20;87.30
13462;DHT22;6803;45.264;5.468;2022-08-25T14:20:36;36.00;83.90
13462;DHT22;6803;45.264;5.468;2022-08-25T14:23:10;36.30;83.60
13462;DHT22;6803;45.264;5.468;2022-08-25T14:25:43;36.30;87.20
13462;DHT22;6803;45.264;5.468;2022-08-25T14:28:16;36.60;85.30
13462;DHT22;6803;45.264;5.468;2022-08-25T14:30:51;36.50;84.50
13462;DHT22;6803;45.264;5.468;2022-08-25T14:33:23;36.40;86.10
13462;DHT22;6803;45.264;5.468;2022-08-25T14:35:56;36.60;84.50
13462;DHT22;6803;45.264;5.468;2022-08-25T14:38:27;36.50;85.70
13462;DHT22;6803;45.264;5.468;2022-08-25T14:40:58;36.40;82.70
13462;DHT22;6803;45.264;5.468;2022-08-25T14:43:28;36.10;82.20
13462;DHT22;6803;45.264;5.468;2022-08-25T14:46:01;35.90;83.70
13462;DHT22;6803;45.264;5.468;2022-08-25T14:48:38;36.50;85.60
13462;DHT22;6803;45.264;5.468;2022-08-25T14:51:07;36.50;81.20
13462;DHT22;6803;45.264;5.468;2022-08-25T14:53:37;36.80;80.20
13462;DHT22;6803;45.264;5.468;2022-08-25T14:56:09;36.40;82.50
13462;DHT22;6803;45.264;5.468;2022-08-25T14:58:41;36.20;86.00
13462;DHT22;6803;45.264;5.468;2022-08-25T15:01:14;36.00;84.70
13462;DHT22;6803;45.264;5.468;2022-08-25T15:03:49;36.20;81.70
13462;DHT22;6803;45.264;5.468;2022-08-25T15:06:20;36.50;83.50
13462;DHT22;6803;45.264;5.468;2022-08-25T15:08:51;36.30;83.30
13462;DHT22;6803;45.264;5.468;2022-08-25T15:11:41;36.50;86.40
13462;DHT22;6803;45.264;5.468;2022-08-25T15:14:14;36.80;78.10
13462;DHT22;6803;45.264;5.468;2022-08-25T15:16:47;37.00;82.00
13462;DHT22;6803;45.264;5.468;2022-08-25T15:19:20;37.10;79.40
13462;DHT22;6803;45.264;5.468;2022-08-25T15:21:52;36.30;79.40
13462;DHT22;6803;45.264;5.468;2022-08-25T15:24:26;35.60;81.40
13462;DHT22;6803;45.264;5.468;2022-08-25T15:26:58;35.30;79.60
13462;DHT22;6803;45.264;5.468;2022-08-25T15:29:30;35.60;83.00
13462;DHT22;6803;45.264;5.468;2022-08-25T15:32:05;35.70;82.30
13462;DHT22;6803;45.264;5.468;2022-08-25T15:34:37;35.70;77.70
13462;DHT22;6803;45.264;5.468;2022-08-25T15:37:09;35.70;83.20
13462;DHT22;6803;45.264;5.468;2022-08-25T15:39:42;35.50;80.80
13462;DHT22;6803;45.264;5.468;2022-08-25T15:42:13;35.10;80.00
13462;DHT22;6803;45.264;5.468;2022-08-25T15:44:44;35.20;79.70
13462;DHT22;6803;45.264;5.468;2022-08-25T15:47:17;34.40;78.40
13462;DHT22;6803;45.264;5.468;2022-08-25T15:49:48;33.80;82.20
13462;DHT22;6803;45.264;5.468;2022-08-25T15:52:19;33.30;86.00
13462;DHT22;6803;45.264;5.468;2022-08-25T15:54:52;32.90;88.20
13462;DHT22;6803;45.264;5.468;2022-08-25T15:57:22;32.50;88.70
13462;DHT22;6803;45.264;5.468;2022-08-25T15:59:53;31.80;90.30
13462;DHT22;6803;45.264;5.468;2022-08-25T16:02:26;31.80;90.00
13462;DHT22;6803;45.264;5.468;2022-08-25T16:04:57;31.30;90.50
13462;DHT22;6803;45.264;5.468;2022-08-25T16:07:27;31.20;90.70
13462;DHT22;6803;45.264;5.468;2022-08-25T16:09:59;30.90;91.50
13462;DHT22;6803;45.264;5.468;2022-08-25T16:12:31;30.60;91.80
13462;DHT22;6803;45.264;5.468;2022-08-25T16:15:02;30.30;91.70
13462;DHT22;6803;45.264;5.468;2022-08-25T16:17:35;30.20;91.90
13462;DHT22;6803;45.264;5.468;2022-08-25T16:20:09;30.10;92.30
13462;DHT22;6803;45.264;5.468;2022-08-25T16:22:42;30.10;91.80
13462;DHT22;6803;45.264;5.468;2022-08-25T16:25:13;30.00;92.50
13462;DHT22;6803;45.264;5.468;2022-08-25T16:27:45;29.90;92.80
13462;DHT22;6803;45.264;5.468;2022-08-25T16:30:16;29.80;92.60
13462;DHT22;6803;45.264;5.468;2022-08-25T16:32:53;29.80;92.80
13462;DHT22;6803;45.264;5.468;2022-08-25T16:35:23;29.80;92.80
13462;DHT22;6803;45.264;5.468;2022-08-25T16:37:57;29.80;93.00
13462;DHT22;6803;45.264;5.468;2022-08-25T16:40:30;29.70;93.50
13462;DHT22;6803;45.264;5.468;2022-08-25T16:43:01;29.60;93.80
13462;DHT22;6803;45.264;5.468;2022-08-25T16:45:31;29.60;93.90
13462;DHT22;6803;45.264;5.468;2022-08-25T16:48:03;29.80;93.90
13462;DHT22;6803;45.264;5.468;2022-08-25T16:50:35;29.60;94.70
13462;DHT22;6803;45.264;5.468;2022-08-25T16:53:06;29.50;95.00
13462;DHT22;6803;45.264;5.468;2022-08-25T16:56:01;29.30;96.20
13462;DHT22;6803;45.264;5.468;2022-08-25T16:58:34;29.10;97.10